Time;durP1;ratioP1;P1;durP2;ratioP2;P2;SDS_P1;SDS_P2;PMS_P1;PMS_P2;Temp;Humidity;BMP_temperature;BMP_pressure;BME280_temperature;BME280_humidity;BME280_pressure;Samples;Min_cycle;Max_cycle;Signal;HPM_P1;HPM_P2
2021/01/18 00:00:25;;;;;;;23.38;11.43;;;3.60;91.80;;;;;;5048682;28;20037;-79
2021/01/18 00:02:51;;;;;;;27.73;13.10;;;3.50;91.80;;;;;;5048816;28;20025;-77
2021/01/18 00:05:17;;;;;;;19.77;12.52;;;3.50;91.80;;;;;;5048200;28;20465;-77
2021/01/18 00:07:44;;;;;;;25.88;12.80;;;3.50;91.80;;;;;;5052659;28;20045;-77
2021/01/18 00:10:13;;;;;;;22.35;13.55;;;3.50;91.90;;;;;;5044565;28;20045;-77
2021/01/18 00:12:42;;;;;;;26.05;12.73;;;3.50;91.80;;;;;;5046398;28;20036;-77
2021/01/18 00:15:09;;;;;;;25.45;14.45;;;3.40;91.70;;;;;;5049253;28;20048;-77
2021/01/18 00:17:34;;;;;;;25.75;13.80;;;3.40;91.80;;;;;;5049580;28;20041;-78
2021/01/18 00:20:00;;;;;;;24.90;13.43;;;3.40;91.80;;;;;;5044753;28;20083;-79
2021/01/18 00:22:26;;;;;;;24.98;12.98;;;3.40;91.90;;;;;;5049371;28;20029;-79
2021/01/18 00:24:52;;;;;;;27.52;13.20;;;3.40;91.90;;;;;;5045694;28;20529;-78
2021/01/18 00:27:17;;;;;;;28.92;13.18;;;3.50;91.90;;;;;;5050078;28;20606;-77
2021/01/18 00:29:43;;;;;;;25.58;12.40;;;3.40;91.80;;;;;;5050377;28;20033;-79
2021/01/18 00:32:08;;;;;;;25.65;12.75;;;3.40;91.80;;;;;;5046333;28;20396;-77
2021/01/18 00:34:34;;;;;;;24.20;13.63;;;3.40;91.70;;;;;;5048398;28;20397;-77
2021/01/18 00:37:00;;;;;;;23.65;13.32;;;3.40;91.70;;;;;;5047895;28;20136;-79
2021/01/18 00:39:26;;;;;;;25.58;13.45;;;3.30;91.70;;;;;;5043680;28;20492;-77
2021/01/18 00:41:52;;;;;;;28.85;12.85;;;3.30;91.80;;;;;;5048324;28;20036;-77
2021/01/18 00:44:17;;;;;;;26.13;12.38;;;3.20;91.90;;;;;;5049180;28;20036;-78
2021/01/18 00:46:46;;;;;;;26.45;12.35;;;3.20;91.90;;;;;;5049550;28;20052;-77
2021/01/18 00:49:12;;;;;;;22.55;11.93;;;3.10;92.00;;;;;;5050818;28;20029;-79
2021/01/18 00:51:38;;;;;;;25.35;13.02;;;3.10;92.00;;;;;;5047613;28;20521;-84
2021/01/18 00:54:05;;;;;;;24.88;11.95;;;3.10;92.10;;;;;;5047658;28;20029;-77
2021/01/18 00:56:30;;;;;;;20.50;12.13;;;3.10;92.20;;;;;;5047767;28;20045;-77
2021/01/18 00:58:56;;;;;;;25.92;12.82;;;3.20;92.20;;;;;;5049185;28;20060;-77
2021/01/18 01:01:23;;;;;;;28.70;13.02;;;3.10;92.10;;;;;;5047225;28;20032;-75
2021/01/18 01:03:49;;;;;;;25.80;12.88;;;3.10;92.10;;;;;;5054582;28;20052;-74
2021/01/18 01:06:15;;;;;;;25.83;13.35;;;3.10;92.10;;;;;;5046161;28;20488;-78
2021/01/18 01:08:40;;;;;;;26.75;13.57;;;3.10;92.10;;;;;;5047087;28;20032;-77
2021/01/18 01:11:06;;;;;;;25.08;11.95;;;3.10;92.10;;;;;;5046998;28;20554;-77
2021/01/18 01:13:32;;;;;;;25.20;12.65;;;3.10;91.90;;;;;;5048757;28;20530;-78
2021/01/18 01:15:57;;;;;;;25.17;12.65;;;3.10;91.90;;;;;;5049146;28;20528;-77
2021/01/18 01:18:23;;;;;;;26.83;12.82;;;3.00;91.90;;;;;;5050330;28;20033;-77
2021/01/18 01:20:49;;;;;;;27.33;12.40;;;3.00;91.90;;;;;;5045822;28;20037;-78
2021/01/18 01:23:14;;;;;;;28.90;12.70;;;3.00;92.00;;;;;;5046267;28;20071;-80
2021/01/18 01:25:40;;;;;;;23.92;12.25;;;3.00;92.10;;;;;;5046989;28;20034;-78
2021/01/18 01:28:06;;;;;;;22.75;12.02;;;3.00;92.10;;;;;;5047124;28;20541;-76
2021/01/18 01:30:33;;;;;;;25.65;12.20;;;3.00;92.10;;;;;;5040462;28;20040;-77
2021/01/18 01:32:59;;;;;;;22.63;11.73;;;2.90;92.10;;;;;;5046621;28;20472;-77
2021/01/18 01:35:28;;;;;;;26.75;12.25;;;2.90;92.10;;;;;;5052049;28;20044;-77
2021/01/18 01:37:55;;;;;;;25.30;12.70;;;2.90;92.20;;;;;;5045697;28;20037;-76
2021/01/18 01:40:21;;;;;;;23.38;11.23;;;2.90;92.20;;;;;;5046717;28;20045;-76
2021/01/18 01:42:47;;;;;;;26.73;12.02;;;2.90;92.20;;;;;;5048050;28;20456;-76
2021/01/18 01:45:15;;;;;;;22.08;12.63;;;3.00;92.10;;;;;;5047207;28;20045;-77
2021/01/18 01:48:08;;;;;;;38.63;12.27;;;3.00;92.00;;;;;;5047686;28;20498;-76
2021/01/18 01:50:37;;;;;;;24.77;10.90;;;3.00;91.90;;;;;;5043766;28;20035;-77
2021/01/18 01:53:20;;;;;;;26.95;12.77;;;2.90;91.80;;;;;;5042846;28;20474;-76
2021/01/18 01:55:46;;;;;;;20.65;11.30;;;2.90;91.80;;;;;;5044446;28;20140;-76
2021/01/18 01:58:12;;;;;;;23.58;11.88;;;2.90;91.90;;;;;;5045177;28;20135;-78
2021/01/18 02:00:39;;;;;;;23.50;11.73;;;2.80;91.90;;;;;;5045655;28;20055;-76
2021/01/18 02:03:08;;;;;;;25.15;11.45;;;2.80;91.90;;;;;;5044208;28;20033;-77
2021/01/18 02:05:34;;;;;;;24.33;11.90;;;2.80;92.00;;;;;;5043987;28;20108;-77
2021/01/18 02:08:01;;;;;;;20.88;11.48;;;2.70;91.90;;;;;;5046357;28;20075;-77
2021/01/18 02:10:27;;;;;;;22.77;11.77;;;2.70;92.00;;;;;;5052207;28;20033;-76
2021/01/18 02:12:54;;;;;;;21.75;11.55;;;2.60;92.00;;;;;;5045996;28;20071;-77
2021/01/18 02:15:22;;;;;;;19.58;10.70;;;2.60;92.10;;;;;;5047633;28;20364;-77
2021/01/18 02:18:06;;;;;;;27.60;11.93;;;2.60;92.10;;;;;;5048218;28;20037;-77
2021/01/18 02:20:49;;;;;;;27.42;11.50;;;2.60;92.10;;;;;;5044967;28;20090;-77
2021/01/18 02:23:36;;;;;;;20.90;10.98;;;2.60;92.30;;;;;;5061292;28;20526;-77
2021/01/18 02:26:05;;;;;;;22.73;12.18;;;2.60;92.30;;;;;;5045611;28;20033;-77
2021/01/18 02:28:59;;;;;;;21.73;11.25;;;2.60;92.20;;;;;;5045526;28;20029;-76
2021/01/18 02:31:27;;;;;;;22.77;11.38;;;2.50;92.10;;;;;;5046042;28;20095;-76
2021/01/18 02:34:31;;;;;;;25.48;12.02;;;2.50;92.10;;;;;;5051552;28;20407;-76
2021/01/18 02:37:16;;;;;;;26.15;12.73;;;2.50;92.20;;;;;;5003589;28;20037;-75
2021/01/18 02:39:50;;;;;;;24.17;11.67;;;2.60;92.20;;;;;;5054314;28;20029;-77
2021/01/18 02:42:30;;;;;;;24.08;12.50;;;2.50;92.20;;;;;;5051513;28;20033;-76
2021/01/18 02:44:58;;;;;;;23.73;11.80;;;2.50;92.30;;;;;;5046776;28;20452;-77
2021/01/18 02:47:28;;;;;;;27.23;12.77;;;2.50;92.30;;;;;;5048600;28;20066;-77
2021/01/18 02:49:57;;;;;;;22.67;12.73;;;2.60;92.30;;;;;;5052444;28;20376;-76
2021/01/18 02:52:22;;;;;;;25.20;11.88;;;2.60;92.40;;;;;;5049825;28;20484;-77
2021/01/18 02:54:48;;;;;;;22.13;12.68;;;2.50;92.30;;;;;;5052212;28;20060;-76
2021/01/18 02:57:19;;;;;;;21.67;12.00;;;2.50;92.20;;;;;;5049051;28;20368;-77
2021/01/18 02:59:45;;;;;;;22.58;12.20;;;2.40;92.20;;;;;;5049074;28;20108;-77
2021/01/18 03:02:22;;;;;;;23.98;10.90;;;2.50;92.20;;;;;;5048221;28;20144;-77
2021/01/18 03:05:00;;;;;;;23.23;11.85;;;2.40;92.20;;;;;;5048902;28;20029;-76
2021/01/18 03:07:39;;;;;;;22.55;11.68;;;2.40;92.30;;;;;;5049677;28;20045;-76
2021/01/18 03:10:30;;;;;;;29.20;12.85;;;2.40;92.30;;;;;;5046919;28;20468;-76
2021/01/18 03:13:23;;;;;;;23.27;13.27;;;2.30;92.50;;;;;;5049519;28;20055;-77
2021/01/18 03:15:54;;;;;;;26.75;13.32;;;2.30;92.60;;;;;;5045126;28;20029;-77
2021/01/18 03:18:22;;;;;;;28.15;13.00;;;2.30;92.50;;;;;;5053363;28;20120;-76
2021/01/18 03:20:49;;;;;;;23.75;13.82;;;2.30;92.40;;;;;;5047285;28;20033;-76
2021/01/18 03:23:15;;;;;;;24.00;13.25;;;2.20;92.40;;;;;;5051470;28;20124;-77
2021/01/18 03:25:54;;;;;;;26.63;12.77;;;2.30;92.40;;;;;;5048529;28;20440;-77
2021/01/18 03:28:21;;;;;;;26.90;12.43;;;2.20;92.40;;;;;;5048974;28;20033;-77
2021/01/18 03:30:47;;;;;;;24.02;12.82;;;2.20;92.50;;;;;;5048771;28;20037;-76
2021/01/18 03:33:13;;;;;;;25.42;12.98;;;2.20;92.40;;;;;;5046676;28;20566;-77
2021/01/18 03:35:40;;;;;;;25.55;12.35;;;2.20;92.50;;;;;;5051182;28;20051;-76
2021/01/18 03:38:06;;;;;;;24.85;13.18;;;2.20;92.40;;;;;;5052056;28;20041;-76
2021/01/18 03:40:32;;;;;;;24.25;12.85;;;2.20;92.50;;;;;;5048390;28;20035;-77
2021/01/18 03:43:00;;;;;;;23.55;13.35;;;2.10;92.50;;;;;;5046510;28;20376;-76
2021/01/18 03:45:29;;;;;;;25.13;13.48;;;2.10;92.50;;;;;;5047689;28;20112;-76
2021/01/18 03:47:55;;;;;;;24.85;12.88;;;2.10;92.60;;;;;;5049563;28;20083;-77
2021/01/18 03:50:21;;;;;;;24.77;12.82;;;2.10;92.50;;;;;;5049991;28;20434;-77
2021/01/18 03:52:51;;;;;;;23.63;13.45;;;2.10;92.60;;;;;;5050338;28;20024;-76
2021/01/18 03:55:17;;;;;;;27.95;13.85;;;2.10;92.60;;;;;;5049327;28;20033;-76
2021/01/18 03:57:48;;;;;;;21.40;12.65;;;2.10;92.60;;;;;;5053032;28;20041;-76
2021/01/18 04:00:15;;;;;;;29.63;13.75;;;2.10;92.60;;;;;;5046139;28;20037;-77
2021/01/18 04:02:41;;;;;;;28.27;13.60;;;2.00;92.60;;;;;;5052460;28;20049;-77
2021/01/18 04:05:08;;;;;;;29.23;13.38;;;2.00;92.60;;;;;;5049770;28;20033;-77
2021/01/18 04:07:34;;;;;;;25.63;12.75;;;2.00;92.60;;;;;;5050208;28;20036;-76
2021/01/18 04:09:59;;;;;;;21.10;12.63;;;2.00;92.70;;;;;;5049372;28;20037;-76
2021/01/18 04:12:25;;;;;;;26.67;13.25;;;2.00;92.70;;;;;;5051171;28;20029;-75
2021/01/18 04:14:50;;;;;;;24.75;13.25;;;2.00;92.80;;;;;;5049654;28;20111;-76
2021/01/18 04:17:17;;;;;;;23.45;12.52;;;1.90;92.80;;;;;;5048928;28;20115;-77
2021/01/18 04:19:43;;;;;;;26.52;13.07;;;1.90;92.80;;;;;;5049561;28;20480;-77
2021/01/18 04:22:09;;;;;;;24.20;12.35;;;1.90;92.90;;;;;;5045634;28;20426;-78
2021/01/18 04:24:34;;;;;;;27.05;13.13;;;1.90;92.90;;;;;;5050740;28;20029;-76
2021/01/18 04:27:00;;;;;;;25.15;12.82;;;1.90;93.00;;;;;;5052534;28;20160;-77
2021/01/18 04:29:26;;;;;;;20.60;12.27;;;1.90;93.00;;;;;;5050752;28;20100;-76
2021/01/18 04:31:52;;;;;;;29.77;12.35;;;1.90;93.00;;;;;;5049093;28;20094;-77
2021/01/18 04:34:18;;;;;;;24.15;12.20;;;1.90;93.10;;;;;;5047536;28;20029;-81
2021/01/18 04:36:44;;;;;;;27.00;12.45;;;1.90;93.00;;;;;;5052079;28;20032;-76
2021/01/18 04:39:10;;;;;;;25.58;13.00;;;1.90;93.10;;;;;;5047052;28;20381;-77
2021/01/18 04:41:46;;;;;;;24.67;12.15;;;1.90;93.10;;;;;;5048374;28;20128;-78
2021/01/18 04:44:14;;;;;;;26.20;13.23;;;1.90;93.00;;;;;;5046364;28;20032;-79
2021/01/18 04:46:42;;;;;;;26.50;13.00;;;1.90;93.10;;;;;;5055090;28;20045;-77
2021/01/18 04:49:09;;;;;;;29.33;12.90;;;2.00;93.10;;;;;;5046587;28;20117;-76
2021/01/18 04:51:47;;;;;;;28.73;12.60;;;2.00;93.10;;;;;;5054888;28;20061;-76
2021/01/18 04:54:15;;;;;;;25.92;13.48;;;2.00;93.10;;;;;;5049903;28;20067;-76
2021/01/18 04:57:10;;;;;;;21.83;12.00;;;2.00;93.20;;;;;;5048138;28;20036;-77
2021/01/18 04:59:46;;;;;;;30.48;13.23;;;2.00;93.10;;;;;;5045278;28;20051;-76
2021/01/18 05:02:20;;;;;;;22.45;12.95;;;2.00;93.10;;;;;;5047733;28;20032;-77
2021/01/18 05:04:48;;;;;;;35.80;13.88;;;2.00;93.10;;;;;;5043572;28;20826;-83
2021/01/18 05:07:22;;;;;;;31.20;14.20;;;2.00;93.10;;;;;;5047065;28;20083;-76
2021/01/18 05:10:09;;;;;;;27.90;12.50;;;2.00;93.10;;;;;;5042009;28;20041;-77
2021/01/18 05:12:40;;;;;;;29.45;13.35;;;2.10;93.10;;;;;;5045129;28;20025;-77
2021/01/18 05:15:07;;;;;;;27.73;12.55;;;2.10;93.10;;;;;;5044380;28;20368;-77
2021/01/18 05:17:49;;;;;;;26.55;12.02;;;2.10;93.10;;;;;;5048069;28;20384;-76
2021/01/18 05:20:20;;;;;;;22.15;12.35;;;2.10;93.10;;;;;;5044371;28;20025;-77
2021/01/18 05:22:52;;;;;;;26.08;11.93;;;2.10;93.10;;;;;;5045815;28;20419;-77
2021/01/18 05:25:18;;;;;;;28.48;11.93;;;2.10;93.10;;;;;;5048137;28;20029;-76
2021/01/18 05:28:04;;;;;;;27.88;13.25;;;2.20;93.00;;;;;;5045797;28;20487;-78
2021/01/18 05:30:50;;;;;;;29.10;12.18;;;2.20;93.10;;;;;;5047055;28;20134;-76
2021/01/18 05:33:16;;;;;;;25.23;12.38;;;2.20;93.00;;;;;;5044487;28;20091;-77
2021/01/18 05:35:51;;;;;;;23.80;12.40;;;2.20;92.90;;;;;;5047809;28;20041;-77
2021/01/18 05:38:17;;;;;;;30.73;13.60;;;2.20;92.90;;;;;;5046482;28;20086;-77
2021/01/18 05:40:51;;;;;;;29.67;12.43;;;2.30;93.00;;;;;;5049410;28;20087;-76
2021/01/18 05:43:18;;;;;;;22.98;12.43;;;2.20;93.00;;;;;;5045200;28;20041;-76
2021/01/18 05:45:46;;;;;;;22.75;12.45;;;2.30;93.00;;;;;;5051493;28;20033;-76
2021/01/18 05:48:13;;;;;;;27.92;12.68;;;2.30;92.90;;;;;;5047330;28;20060;-76
2021/01/18 05:50:40;;;;;;;27.67;12.93;;;2.30;92.80;;;;;;5047286;28;20476;-76
2021/01/18 05:53:25;;;;;;;23.42;12.85;;;2.30;92.90;;;;;;5050828;28;20078;-80
2021/01/18 05:55:50;;;;;;;23.48;11.68;;;2.40;92.90;;;;;;5066071;28;20060;-76
2021/01/18 05:58:33;;;;;;;24.77;11.98;;;2.40;92.90;;;;;;5047718;28;20479;-76
2021/01/18 06:01:00;;;;;;;27.92;12.10;;;2.40;92.80;;;;;;5046236;28;20124;-78
2021/01/18 06:03:30;;;;;;;26.80;11.90;;;2.40;92.90;;;;;;5040752;28;20060;-77
2021/01/18 06:05:58;;;;;;;26.60;11.75;;;2.40;92.90;;;;;;5045244;28;20029;-76
2021/01/18 06:08:24;;;;;;;24.30;11.30;;;2.50;92.90;;;;;;5044332;28;20033;-78
2021/01/18 06:10:52;;;;;;;26.35;11.60;;;2.50;92.90;;;;;;5048586;28;20483;-76
2021/01/18 06:13:33;;;;;;;27.92;11.98;;;2.50;92.90;;;;;;5049026;28;20707;-76
2021/01/18 06:16:02;;;;;;;23.65;10.93;;;2.50;92.90;;;;;;5054592;28;20029;-75
2021/01/18 06:18:30;;;;;;;20.75;10.77;;;2.60;93.00;;;;;;5052141;28;20041;-78
2021/01/18 06:20:57;;;;;;;20.38;10.75;;;2.60;93.00;;;;;;5052312;28;20086;-76
2021/01/18 06:23:23;;;;;;;22.13;10.75;;;2.60;93.00;;;;;;5051813;28;20151;-76
2021/01/18 06:25:52;;;;;;;23.98;11.60;;;2.70;93.00;;;;;;5064180;28;20041;-77
2021/01/18 06:28:37;;;;;;;24.60;10.98;;;2.70;92.90;;;;;;5050663;28;20044;-76
2021/01/18 06:31:07;;;;;;;;;;;2.70;92.90;;;;;;5050288;28;20037;-76
2021/01/18 06:33:46;;;;;;;24.65;12.02;;;2.70;92.90;;;;;;5056666;28;19917;-77
2021/01/18 06:36:21;;;;;;;22.88;11.50;;;2.70;92.80;;;;;;5054181;28;20054;-77
2021/01/18 06:38:58;;;;;;;26.10;10.23;;;2.70;92.70;;;;;;5055108;28;20066;-76
2021/01/18 06:41:35;;;;;;;23.60;10.52;;;2.70;92.80;;;;;;5052068;28;20032;-76
2021/01/18 06:44:01;;;;;;;27.67;10.63;;;2.70;92.80;;;;;;5049207;28;20140;-77
2021/01/18 06:46:33;;;;;;;23.67;9.25;;;2.70;92.80;;;;;;5055384;28;20075;-77
2021/01/18 06:48:59;;;;;;;23.70;9.98;;;2.70;92.80;;;;;;5052177;28;20117;-75
2021/01/18 06:51:26;;;;;;;26.55;10.45;;;2.70;92.80;;;;;;5054220;28;20046;-71
2021/01/18 06:53:55;;;;;;;22.42;10.18;;;2.80;92.90;;;;;;5052962;28;20035;-71
2021/01/18 06:56:25;;;;;;;25.08;10.65;;;2.80;92.80;;;;;;5052690;28;20068;-71
2021/01/18 06:58:56;;;;;;;21.85;10.75;;;2.80;92.80;;;;;;5051074;28;21872;-74
2021/01/18 07:01:45;;;;;;;26.58;12.80;;;2.80;92.80;;;;;;5052879;28;20037;-71
2021/01/18 07:04:14;;;;;;;27.40;13.60;;;2.80;92.70;;;;;;5051166;28;20044;-70
2021/01/18 07:06:40;;;;;;;23.40;11.57;;;2.80;92.80;;;;;;5053203;28;20684;-71
2021/01/18 07:09:15;;;;;;;30.70;11.73;;;2.80;92.80;;;;;;5051312;28;20036;-71
2021/01/18 07:11:41;;;;;;;28.55;11.93;;;2.80;92.90;;;;;;5051472;28;20412;-71
2021/01/18 07:14:12;;;;;;;26.73;10.60;;;2.80;92.80;;;;;;5051455;28;20041;-72
2021/01/18 07:16:42;;;;;;;24.27;11.35;;;2.80;92.90;;;;;;5052466;28;20037;-71
2021/01/18 07:19:08;;;;;;;23.38;11.48;;;2.80;92.90;;;;;;5051309;28;20464;-70
2021/01/18 07:22:17;;;;;;;31.98;11.95;;;2.80;92.90;;;;;;5049967;28;20036;-72
2021/01/18 07:24:51;;;;;;;23.25;10.77;;;2.80;93.00;;;;;;5039611;28;20083;-70
2021/01/18 07:27:23;;;;;;;25.42;11.82;;;2.80;93.00;;;;;;5047403;28;20037;-71
2021/01/18 07:29:49;;;;;;;23.35;11.60;;;2.90;93.00;;;;;;5050525;28;20028;-71
2021/01/18 07:32:15;;;;;;;30.58;11.43;;;2.90;93.00;;;;;;5049331;28;20044;-71
2021/01/18 07:34:41;;;;;;;23.73;11.98;;;2.90;92.90;;;;;;5050513;28;20079;-70
2021/01/18 07:37:08;;;;;;;21.13;10.57;;;3.00;92.90;;;;;;5052871;28;20045;-72
2021/01/18 07:39:38;;;;;;;25.30;11.60;;;2.90;92.90;;;;;;5049416;28;20110;-70
2021/01/18 07:42:05;;;;;;;27.10;11.45;;;3.00;92.90;;;;;;5049590;28;20040;-71
2021/01/18 07:44:38;;;;;;;24.00;10.77;;;3.00;93.00;;;;;;5049709;28;20029;-72
2021/01/18 07:47:09;;;;;;;19.45;10.23;;;3.00;93.00;;;;;;5047618;28;20508;-70
2021/01/18 07:49:36;;;;;;;25.15;11.07;;;3.10;93.00;;;;;;5049104;28;20037;-70
2021/01/18 07:52:15;;;;;;;26.92;11.68;;;3.10;93.00;;;;;;5047165;28;20029;-71
2021/01/18 07:54:40;;;;;;;28.70;11.40;;;3.10;93.10;;;;;;5045669;28;20037;-71
2021/01/18 07:57:26;;;;;;;32.03;12.98;;;3.20;93.20;;;;;;5048201;28;20396;-70
2021/01/18 08:00:10;;;;;;;;;;;3.20;93.20;;;;;;5048801;28;20029;-71
2021/01/18 08:02:36;;;;;;;27.98;10.38;;;3.20;93.10;;;;;;5051536;28;19919;-75
2021/01/18 08:05:31;;;;;;;25.17;10.40;;;3.30;93.10;;;;;;5042873;28;20036;-71
2021/01/18 08:08:16;;;;;;;23.38;10.13;;;3.30;93.10;;;;;;5063222;28;20041;-70
2021/01/18 08:11:03;;;;;;;25.77;10.15;;;3.30;93.00;;;;;;5048342;28;20552;-71
2021/01/18 08:13:48;;;;;;;23.17;10.30;;;3.40;93.00;;;;;;5046010;28;20037;-71
2021/01/18 08:16:26;;;;;;;26.10;9.98;;;3.40;93.00;;;;;;5048830;28;20145;-70
2021/01/18 08:19:12;;;;;;;23.83;9.18;;;3.50;93.00;;;;;;5049830;28;20028;-76
2021/01/18 08:21:42;;;;;;;20.90;9.60;;;3.50;92.90;;;;;;5048841;28;20037;-72
2021/01/18 08:24:26;;;;;;;20.90;10.02;;;3.50;92.80;;;;;;5048960;28;20071;-72
2021/01/18 08:27:08;;;;;;;20.75;9.77;;;3.60;92.80;;;;;;5046561;28;20059;-75
2021/01/18 08:29:46;;;;;;;24.88;10.00;;;3.60;92.60;;;;;;5047074;28;20567;-70
2021/01/18 08:32:31;;;;;;;24.35;9.77;;;3.60;92.50;;;;;;5046175;28;20480;-72
2021/01/18 08:35:06;;;;;;;27.67;9.53;;;3.60;92.50;;;;;;5050223;28;20332;-70
2021/01/18 08:37:32;;;;;;;;;;;3.70;92.50;;;;;;5052007;28;20363;-71
2021/01/18 08:40:14;;;;;;;29.00;8.65;;;3.80;92.40;;;;;;5049114;28;20559;-71
2021/01/18 08:42:42;;;;;;;25.27;8.40;;;3.90;92.30;;;;;;5047042;28;20532;-70
2021/01/18 08:45:10;;;;;;;19.50;7.80;;;4.00;92.10;;;;;;5047254;28;20063;-76
2021/01/18 08:47:58;;;;;;;22.42;8.65;;;4.00;91.90;;;;;;5049098;28;20438;-71
2021/01/18 08:50:41;;;;;;;21.13;7.50;;;4.10;91.80;;;;;;5043957;28;20027;-72
2021/01/18 08:53:30;;;;;;;24.85;7.30;;;4.10;91.60;;;;;;5045968;28;20025;-70
2021/01/18 08:56:04;;;;;;;21.75;8.35;;;4.20;91.50;;;;;;5060539;28;20040;-72
2021/01/18 08:58:41;;;;;;;20.65;9.00;;;4.20;91.50;;;;;;5043639;28;20063;-74
2021/01/18 09:01:12;;;;;;;22.77;7.28;;;4.30;91.40;;;;;;5043098;28;20055;-72
2021/01/18 09:03:38;;;;;;;21.75;7.53;;;4.30;91.40;;;;;;5049840;28;20041;-72
2021/01/18 09:06:03;;;;;;;19.27;7.40;;;4.40;91.20;;;;;;5050424;28;20419;-72
2021/01/18 09:08:29;;;;;;;20.02;7.53;;;4.40;91.10;;;;;;5047095;28;20051;-71
2021/01/18 09:10:58;;;;;;;18.30;6.75;;;4.50;91.10;;;;;;5046593;28;20040;-71
2021/01/18 09:13:26;;;;;;;21.40;8.32;;;4.60;90.90;;;;;;5045313;28;20380;-69
2021/01/18 09:15:53;;;;;;;17.98;7.13;;;4.60;90.60;;;;;;5046964;28;20032;-71
2021/01/18 09:18:19;;;;;;;16.70;7.22;;;4.60;90.30;;;;;;5045372;28;20371;-70
2021/01/18 09:20:46;;;;;;;24.98;8.30;;;4.70;90.00;;;;;;5046758;28;20037;-71
2021/01/18 09:23:13;;;;;;;23.75;8.63;;;4.70;90.00;;;;;;5050392;28;20048;-69
2021/01/18 09:25:39;;;;;;;27.70;9.75;;;4.70;89.80;;;;;;5048327;28;20116;-68
2021/01/18 09:28:06;;;;;;;20.65;8.18;;;4.70;89.80;;;;;;5046300;28;20442;-71
2021/01/18 09:30:33;;;;;;;23.33;9.20;;;4.70;89.80;;;;;;5043105;28;21296;-68
2021/01/18 09:33:01;;;;;;;22.58;8.18;;;4.70;89.90;;;;;;5053737;28;20040;-68
2021/01/18 09:35:28;;;;;;;22.58;7.47;;;4.80;89.80;;;;;;5050645;28;20388;-70
2021/01/18 09:37:54;;;;;;;22.48;7.22;;;4.80;89.70;;;;;;5046423;28;20033;-73
2021/01/18 09:40:20;;;;;;;25.02;8.65;;;4.90;89.60;;;;;;5046293;28;20132;-70
2021/01/18 09:42:46;;;;;;;24.52;7.95;;;4.90;89.50;;;;;;5047902;28;20033;-70
2021/01/18 09:45:13;;;;;;;23.25;8.35;;;4.90;89.30;;;;;;5045885;28;20514;-70
2021/01/18 09:47:39;;;;;;;19.42;8.25;;;5.00;89.30;;;;;;5047162;28;20120;-70
2021/01/18 09:50:18;;;;;;;20.83;8.82;;;5.00;89.30;;;;;;5044789;28;20539;-68
2021/01/18 09:52:46;;;;;;;28.52;9.05;;;5.10;89.20;;;;;;5045530;28;20127;-68
2021/01/18 09:55:19;;;;;;;25.08;9.43;;;5.10;89.20;;;;;;5037518;28;20037;-69
2021/01/18 09:57:54;;;;;;;23.48;7.50;;;5.10;89.10;;;;;;5044909;28;20492;-68
2021/01/18 10:00:21;;;;;;;;;;;5.10;89.00;;;;;;5046704;28;20249;-70
2021/01/18 10:02:49;;;;;;;21.00;7.47;;;5.20;89.00;;;;;;5045264;28;19912;-70
2021/01/18 10:05:29;;;;;;;28.13;9.18;;;5.30;88.80;;;;;;5045589;28;20508;-69
2021/01/18 10:07:56;;;;;;;22.65;8.38;;;5.30;88.80;;;;;;5044701;28;20749;-71
2021/01/18 10:10:22;;;;;;;23.42;9.02;;;5.40;88.80;;;;;;5045769;28;20044;-70
2021/01/18 10:12:54;;;;;;;25.48;9.32;;;5.50;88.50;;;;;;5046813;28;20121;-70
2021/01/18 10:15:25;;;;;;;23.05;8.75;;;5.60;88.50;;;;;;5043491;28;20021;-69
2021/01/18 10:17:51;;;;;;;19.67;8.38;;;5.60;88.40;;;;;;5046940;28;20044;-70
2021/01/18 10:20:22;;;;;;;25.30;8.27;;;5.70;88.40;;;;;;5045353;28;20021;-69
2021/01/18 10:22:48;;;;;;;24.52;9.38;;;5.70;88.00;;;;;;5049924;28;20032;-69
2021/01/18 10:25:14;;;;;;;21.02;7.60;;;5.80;88.10;;;;;;5045261;28;20064;-71
2021/01/18 10:27:52;;;;;;;21.35;7.45;;;5.80;87.90;;;;;;5047526;28;20182;-72
2021/01/18 10:30:25;;;;;;;20.77;7.60;;;5.80;87.80;;;;;;5044030;28;20056;-70
2021/01/18 10:32:53;;;;;;;20.35;7.80;;;5.80;87.90;;;;;;5050052;28;20056;-70
2021/01/18 10:35:32;;;;;;;22.17;8.07;;;5.90;87.80;;;;;;5047051;28;20040;-70
2021/01/18 10:38:24;;;;;;;22.38;8.00;;;5.90;87.60;;;;;;5047215;28;20383;-70
2021/01/18 10:41:04;;;;;;;26.10;9.05;;;5.90;87.90;;;;;;5045062;28;20224;-70
2021/01/18 10:43:30;;;;;;;23.27;8.23;;;6.00;87.60;;;;;;5046893;28;20037;-69
2021/01/18 10:45:58;;;;;;;21.60;8.23;;;6.00;87.70;;;;;;5049540;28;20456;-69
2021/01/18 10:48:31;;;;;;;24.92;8.00;;;6.10;87.50;;;;;;5045801;28;20049;-69
2021/01/18 10:51:03;;;;;;;23.98;8.13;;;6.10;87.40;;;;;;5047539;28;20033;-71
2021/01/18 10:53:30;;;;;;;23.77;9.27;;;6.20;87.60;;;;;;5045774;28;20037;-69
2021/01/18 10:56:16;;;;;;;21.33;8.63;;;6.20;87.30;;;;;;5043804;28;20548;-70
2021/01/18 10:58:54;;;;;;;23.67;9.50;;;6.40;87.20;;;;;;5048778;28;20056;-70
2021/01/18 11:01:20;;;;;;;20.73;8.80;;;6.40;87.20;;;;;;5046990;28;20180;-71
2021/01/18 11:03:46;;;;;;;25.48;10.85;;;6.50;87.00;;;;;;5050770;28;20048;-70
2021/01/18 11:06:14;;;;;;;29.17;9.68;;;6.50;86.80;;;;;;5047601;28;20044;-70
2021/01/18 11:08:41;;;;;;;29.65;10.30;;;6.50;86.70;;;;;;5052392;28;20036;-70
2021/01/18 11:11:27;;;;;;;23.75;9.95;;;6.60;86.60;;;;;;5051504;28;20053;-69
2021/01/18 11:14:01;;;;;;;22.23;9.05;;;6.60;86.70;;;;;;5048388;28;20029;-69
2021/01/18 11:16:27;;;;;;;27.67;8.77;;;6.60;86.80;;;;;;5049273;28;20372;-69
2021/01/18 11:19:07;;;;;;;25.98;8.32;;;6.60;86.80;;;;;;5049681;28;20029;-69
2021/01/18 11:21:33;;;;;;;19.35;8.07;;;6.60;86.80;;;;;;5049273;28;20044;-70
2021/01/18 11:23:58;;;;;;;22.27;7.97;;;6.60;86.50;;;;;;5050641;28;20036;-69
2021/01/18 11:26:25;;;;;;;21.17;7.68;;;6.60;86.70;;;;;;5046444;28;20037;-69
2021/01/18 11:28:51;;;;;;;17.02;6.80;;;6.60;86.80;;;;;;5049803;28;20124;-69
2021/01/18 11:31:17;;;;;;;21.92;8.57;;;6.70;86.60;;;;;;5049607;28;20026;-70
2021/01/18 11:33:45;;;;;;;21.33;7.35;;;6.60;86.70;;;;;;5045374;28;20128;-69
2021/01/18 11:36:12;;;;;;;24.15;8.88;;;6.60;86.80;;;;;;5047737;28;20583;-69
2021/01/18 11:38:38;;;;;;;23.95;8.68;;;6.70;86.80;;;;;;5049427;28;20029;-71
2021/01/18 11:41:04;;;;;;;24.58;8.88;;;6.70;86.70;;;;;;5051972;28;20060;-70
2021/01/18 11:43:32;;;;;;;21.67;8.55;;;6.70;86.70;;;;;;5053349;28;20380;-69
2021/01/18 11:45:59;;;;;;;20.52;7.78;;;6.70;86.30;;;;;;5051896;28;20472;-69
2021/01/18 11:48:24;;;;;;;19.88;9.57;;;6.80;86.30;;;;;;5045482;28;20099;-71
2021/01/18 11:50:50;;;;;;;26.05;12.02;;;6.80;86.30;;;;;;5052763;28;20753;-69
2021/01/18 11:53:17;;;;;;;23.77;9.90;;;6.80;86.20;;;;;;5046447;28;20048;-72
2021/01/18 11:55:46;;;;;;;34.50;18.75;;;6.90;86.30;;;;;;5051944;28;20032;-71
2021/01/18 11:58:12;;;;;;;24.65;15.15;;;6.90;86.30;;;;;;5052130;28;20566;-72
2021/01/18 12:00:38;;;;;;;26.35;11.27;;;6.90;86.10;;;;;;5051755;28;20074;-73
2021/01/18 12:03:04;;;;;;;27.83;9.32;;;6.90;85.90;;;;;;5053342;28;20067;-72
2021/01/18 12:05:30;;;;;;;21.15;8.90;;;6.90;85.90;;;;;;5047029;28;20040;-72
2021/01/18 12:08:00;;;;;;;17.48;7.13;;;7.00;85.80;;;;;;5046269;28;20040;-73
2021/01/18 12:10:26;;;;;;;18.92;7.03;;;7.00;85.50;;;;;;5051537;28;20041;-72
2021/01/18 12:12:52;;;;;;;19.15;8.05;;;7.00;85.60;;;;;;5051601;28;20036;-73
2021/01/18 12:15:18;;;;;;;24.20;7.95;;;7.00;85.60;;;;;;5048903;28;20411;-72
2021/01/18 12:17:44;;;;;;;17.77;7.43;;;7.10;85.40;;;;;;5047984;28;20582;-72
2021/01/18 12:20:15;;;;;;;20.95;8.63;;;7.10;85.30;;;;;;5051279;28;20037;-71
2021/01/18 12:22:41;;;;;;;20.92;6.95;;;7.00;85.40;;;;;;5060291;28;20021;-71
2021/01/18 12:25:08;;;;;;;23.73;7.28;;;7.10;85.40;;;;;;5048014;28;20419;-72
2021/01/18 12:27:34;;;;;;;17.48;7.97;;;7.10;85.40;;;;;;5045573;28;20061;-71
2021/01/18 12:30:00;;;;;;;23.13;7.80;;;7.10;85.50;;;;;;5050030;28;20620;-72
2021/01/18 12:32:26;;;;;;;18.30;7.57;;;7.10;85.60;;;;;;5048668;28;20041;-72
2021/01/18 12:34:51;;;;;;;18.77;8.15;;;7.10;85.30;;;;;;5048405;28;20103;-72
2021/01/18 12:37:17;;;;;;;16.23;7.63;;;7.10;85.00;;;;;;5050306;28;20105;-73
2021/01/18 12:39:43;;;;;;;17.90;8.10;;;7.20;85.10;;;;;;5045706;28;20032;-72
2021/01/18 12:42:09;;;;;;;24.25;7.93;;;7.10;84.80;;;;;;5045302;28;20029;-74
2021/01/18 12:44:35;;;;;;;19.10;8.15;;;7.20;84.80;;;;;;5049885;28;20485;-72
2021/01/18 12:47:07;;;;;;;17.90;7.25;;;7.20;84.80;;;;;;5049331;28;20072;-73
2021/01/18 12:49:33;;;;;;;16.25;7.63;;;7.20;84.50;;;;;;5049632;28;20040;-71
2021/01/18 12:52:00;;;;;;;15.55;7.70;;;7.10;84.70;;;;;;5045958;28;20033;-72
2021/01/18 12:54:25;;;;;;;18.70;8.35;;;7.10;84.90;;;;;;5045287;28;20626;-72
2021/01/18 12:56:55;;;;;;;21.02;8.85;;;7.10;85.00;;;;;;5051634;28;20062;-73